Weather at Winnipeg / James Armstrong Richardson International Airport

Public forecast

Using degrees Celsius for public forecast. Weather courtesy of forecast.io.

Current aviation weather report (METAR) for Winnipeg / James Armstrong Richardson International Airport

Retrieved 2021/01/22 23:00 UTC (58 minutes ago):

CYWG 222300Z 22003KT 190V250 15SM FEW024 OVC037 M11/M15 A3009 RMK SC1SC7 SLP210

Aviation forecast (TAF) for Winnipeg / James Armstrong Richardson International Airport

Retrieved 2021/01/22 18:42 UTC (5 hours ago):

TAF CYWG 221740Z 2218/2318 33008KT P6SM FEW025 OVC040 TEMPO 2218/2302 5SM -SN BKN020 OVC040 BECMG 2300/2302 14008KT FM230200 14008KT P6SM SCT030 BKN070 FM230500 16010KT P6SM -SN BKN030 OVC060 TEMPO 2305/2312 3SM -SN FM231200 17015KT 6SM -SN OVC020 TEMPO 2312/2318 1SM -SN BKN008 RMK NXT FCST BY 230000Z